sensor_id;sensor_type;location;lat;lon;timestamp;temperature;humidity
43015;DHT22;28637;50.554;7.032;2023-10-19T00:03:49;12.10;99.90
43015;DHT22;28637;50.554;7.032;2023-10-19T00:08:50;12.20;99.90
43015;DHT22;28637;50.554;7.032;2023-10-19T00:13:53;12.20;99.90
43015;DHT22;28637;50.554;7.032;2023-10-19T00:18:58;12.20;99.90
43015;DHT22;28637;50.554;7.032;2023-10-19T00:24:00;12.20;99.90
43015;DHT22;28637;50.554;7.032;2023-10-19T00:29:05;12.10;99.90
43015;DHT22;28637;50.554;7.032;2023-10-19T00:34:27;12.00;99.90
43015;DHT22;28637;50.554;7.032;2023-10-19T00:39:29;12.00;99.90
43015;DHT22;28637;50.554;7.032;2023-10-19T00:44:42;12.40;99.90
43015;DHT22;28637;50.554;7.032;2023-10-19T00:49:42;12.50;99.90
43015;DHT22;28637;50.554;7.032;2023-10-19T00:54:45;12.80;99.90
43015;DHT22;28637;50.554;7.032;2023-10-19T00:59:49;13.00;99.90
43015;DHT22;28637;50.554;7.032;2023-10-19T01:04:56;13.10;99.90
43015;DHT22;28637;50.554;7.032;2023-10-19T01:09:58;13.10;99.90
43015;DHT22;28637;50.554;7.032;2023-10-19T01:20:09;13.40;99.90
43015;DHT22;28637;50.554;7.032;2023-10-19T01:25:23;13.50;99.90
43015;DHT22;28637;50.554;7.032;2023-10-19T01:30:36;13.50;99.90
43015;DHT22;28637;50.554;7.032;2023-10-19T01:35:37;13.60;99.90
43015;DHT22;28637;50.554;7.032;2023-10-19T01:41:00;13.60;99.90
43015;DHT22;28637;50.554;7.032;2023-10-19T01:46:01;13.70;99.90
43015;DHT22;28637;50.554;7.032;2023-10-19T01:51:08;13.70;99.90
43015;DHT22;28637;50.554;7.032;2023-10-19T01:56:12;13.70;99.90
43015;DHT22;28637;50.554;7.032;2023-10-19T02:01:14;13.70;99.90
43015;DHT22;28637;50.554;7.032;2023-10-19T02:06:15;13.70;99.90
43015;DHT22;28637;50.554;7.032;2023-10-19T02:11:21;13.80;99.90
43015;DHT22;28637;50.554;7.032;2023-10-19T02:16:22;13.80;99.90
43015;DHT22;28637;50.554;7.032;2023-10-19T02:21:23;13.80;99.90
43015;DHT22;28637;50.554;7.032;2023-10-19T02:26:27;13.80;99.90
43015;DHT22;28637;50.554;7.032;2023-10-19T02:31:29;13.90;99.90
43015;DHT22;28637;50.554;7.032;2023-10-19T02:36:30;13.90;99.90
43015;DHT22;28637;50.554;7.032;2023-10-19T02:41:31;13.90;99.90
43015;DHT22;28637;50.554;7.032;2023-10-19T02:46:38;13.70;99.90
43015;DHT22;28637;50.554;7.032;2023-10-19T02:51:42;13.60;99.90
43015;DHT22;28637;50.554;7.032;2023-10-19T02:56:47;13.60;99.90
43015;DHT22;28637;50.554;7.032;2023-10-19T03:01:59;13.70;99.90
43015;DHT22;28637;50.554;7.032;2023-10-19T03:07:12;13.50;99.90
43015;DHT22;28637;50.554;7.032;2023-10-19T03:12:13;13.40;99.90
43015;DHT22;28637;50.554;7.032;2023-10-19T03:17:15;13.20;99.90
43015;DHT22;28637;50.554;7.032;2023-10-19T03:22:16;13.10;99.90
43015;DHT22;28637;50.554;7.032;2023-10-19T03:27:17;13.00;99.90
43015;DHT22;28637;50.554;7.032;2023-10-19T03:32:25;12.80;99.90
43015;DHT22;28637;50.554;7.032;2023-10-19T03:37:32;12.60;99.90
43015;DHT22;28637;50.554;7.032;2023-10-19T03:42:36;12.50;99.90
43015;DHT22;28637;50.554;7.032;2023-10-19T03:47:41;12.50;99.90
43015;DHT22;28637;50.554;7.032;2023-10-19T03:52:44;12.40;99.90
43015;DHT22;28637;50.554;7.032;2023-10-19T03:57:45;12.30;99.90
43015;DHT22;28637;50.554;7.032;2023-10-19T04:02:55;12.30;99.90
43015;DHT22;28637;50.554;7.032;2023-10-19T04:07:56;12.20;99.90
43015;DHT22;28637;50.554;7.032;2023-10-19T04:12:57;12.30;99.90
43015;DHT22;28637;50.554;7.032;2023-10-19T04:18:02;12.30;99.90
43015;DHT22;28637;50.554;7.032;2023-10-19T04:23:08;12.40;99.90
43015;DHT22;28637;50.554;7.032;2023-10-19T04:28:15;12.30;99.90
43015;DHT22;28637;50.554;7.032;2023-10-19T04:33:15;12.30;99.90
43015;DHT22;28637;50.554;7.032;2023-10-19T04:38:19;12.20;99.90
43015;DHT22;28637;50.554;7.032;2023-10-19T04:43:20;12.30;99.90
43015;DHT22;28637;50.554;7.032;2023-10-19T04:48:22;12.30;99.90
43015;DHT22;28637;50.554;7.032;2023-10-19T04:53:22;12.20;99.90
43015;DHT22;28637;50.554;7.032;2023-10-19T04:58:23;12.20;99.90
43015;DHT22;28637;50.554;7.032;2023-10-19T05:03:25;12.30;99.90
43015;DHT22;28637;50.554;7.032;2023-10-19T05:08:26;12.40;99.90
43015;DHT22;28637;50.554;7.032;2023-10-19T05:13:29;12.40;99.90
43015;DHT22;28637;50.554;7.032;2023-10-19T05:18:31;12.40;99.90
43015;DHT22;28637;50.554;7.032;2023-10-19T05:23:31;12.50;99.90
43015;DHT22;28637;50.554;7.032;2023-10-19T05:28:33;12.50;99.90
43015;DHT22;28637;50.554;7.032;2023-10-19T05:33:33;12.50;99.90
43015;DHT22;28637;50.554;7.032;2023-10-19T05:38:34;12.40;99.90
43015;DHT22;28637;50.554;7.032;2023-10-19T05:43:35;12.40;99.90
43015;DHT22;28637;50.554;7.032;2023-10-19T05:48:36;12.30;99.90
43015;DHT22;28637;50.554;7.032;2023-10-19T05:53:36;12.20;99.90
43015;DHT22;28637;50.554;7.032;2023-10-19T05:58:37;12.20;99.90
43015;DHT22;28637;50.554;7.032;2023-10-19T06:03:38;12.20;99.90
43015;DHT22;28637;50.554;7.032;2023-10-19T06:08:40;12.10;99.90
43015;DHT22;28637;50.554;7.032;2023-10-19T06:13:41;12.10;99.90
43015;DHT22;28637;50.554;7.032;2023-10-19T06:18:43;12.00;99.90
43015;DHT22;28637;50.554;7.032;2023-10-19T06:23:44;12.00;99.90
43015;DHT22;28637;50.554;7.032;2023-10-19T06:28:45;12.00;99.90
43015;DHT22;28637;50.554;7.032;2023-10-19T06:33:45;12.10;99.90
43015;DHT22;28637;50.554;7.032;2023-10-19T06:38:46;12.10;99.90
43015;DHT22;28637;50.554;7.032;2023-10-19T06:43:47;12.20;99.90
43015;DHT22;28637;50.554;7.032;2023-10-19T06:48:47;12.10;99.90
43015;DHT22;28637;50.554;7.032;2023-10-19T06:53:48;12.10;99.90
43015;DHT22;28637;50.554;7.032;2023-10-19T06:58:49;12.20;99.90
43015;DHT22;28637;50.554;7.032;2023-10-19T07:03:49;12.50;99.90
43015;DHT22;28637;50.554;7.032;2023-10-19T07:08:53;12.80;99.90
43015;DHT22;28637;50.554;7.032;2023-10-19T07:13:54;13.00;99.90
43015;DHT22;28637;50.554;7.032;2023-10-19T07:18:55;13.20;99.90
43015;DHT22;28637;50.554;7.032;2023-10-19T07:23:58;13.40;99.90
43015;DHT22;28637;50.554;7.032;2023-10-19T07:29:02;13.60;99.90
43015;DHT22;28637;50.554;7.032;2023-10-19T07:34:03;13.80;99.90
43015;DHT22;28637;50.554;7.032;2023-10-19T07:39:04;14.00;99.90
43015;DHT22;28637;50.554;7.032;2023-10-19T07:44:05;14.20;99.90
43015;DHT22;28637;50.554;7.032;2023-10-19T07:49:05;14.30;99.90
43015;DHT22;28637;50.554;7.032;2023-10-19T07:54:06;14.40;99.90
43015;DHT22;28637;50.554;7.032;2023-10-19T07:59:07;14.60;99.90
43015;DHT22;28637;50.554;7.032;2023-10-19T08:04:08;14.70;99.90
43015;DHT22;28637;50.554;7.032;2023-10-19T08:09:09;14.80;99.90
43015;DHT22;28637;50.554;7.032;2023-10-19T08:14:11;14.90;99.90
43015;DHT22;28637;50.554;7.032;2023-10-19T08:19:12;15.10;99.90
43015;DHT22;28637;50.554;7.032;2023-10-19T08:24:13;15.20;99.90
43015;DHT22;28637;50.554;7.032;2023-10-19T08:29:18;15.20;99.90
43015;DHT22;28637;50.554;7.032;2023-10-19T08:34:19;15.30;99.90
43015;DHT22;28637;50.554;7.032;2023-10-19T08:39:21;15.50;99.90
43015;DHT22;28637;50.554;7.032;2023-10-19T08:44:21;15.70;99.90
43015;DHT22;28637;50.554;7.032;2023-10-19T08:49:22;15.90;99.90
43015;DHT22;28637;50.554;7.032;2023-10-19T08:54:23;16.30;99.90
43015;DHT22;28637;50.554;7.032;2023-10-19T08:59:24;16.50;99.90
43015;DHT22;28637;50.554;7.032;2023-10-19T09:04:24;16.50;99.90
43015;DHT22;28637;50.554;7.032;2023-10-19T09:09:28;16.70;99.90
43015;DHT22;28637;50.554;7.032;2023-10-19T09:14:36;17.00;99.90
43015;DHT22;28637;50.554;7.032;2023-10-19T09:19:46;17.30;99.90
43015;DHT22;28637;50.554;7.032;2023-10-19T09:24:50;17.60;99.90
43015;DHT22;28637;50.554;7.032;2023-10-19T09:29:51;17.40;99.90
43015;DHT22;28637;50.554;7.032;2023-10-19T09:34:52;17.40;99.90
43015;DHT22;28637;50.554;7.032;2023-10-19T09:39:53;17.50;99.90
43015;DHT22;28637;50.554;7.032;2023-10-19T09:44:59;17.50;99.90
43015;DHT22;28637;50.554;7.032;2023-10-19T09:50:06;17.70;99.90
43015;DHT22;28637;50.554;7.032;2023-10-19T09:55:17;17.80;99.90
43015;DHT22;28637;50.554;7.032;2023-10-19T10:00:20;17.80;99.90
43015;DHT22;28637;50.554;7.032;2023-10-19T10:05:44;17.60;99.90
43015;DHT22;28637;50.554;7.032;2023-10-19T10:10:49;17.40;99.90
43015;DHT22;28637;50.554;7.032;2023-10-19T10:15:54;17.30;99.90
43015;DHT22;28637;50.554;7.032;2023-10-19T10:21:15;17.30;99.90
43015;DHT22;28637;50.554;7.032;2023-10-19T10:26:17;17.20;99.90
43015;DHT22;28637;50.554;7.032;2023-10-19T10:31:19;17.20;99.90
43015;DHT22;28637;50.554;7.032;2023-10-19T10:36:22;17.10;99.90
43015;DHT22;28637;50.554;7.032;2023-10-19T10:41:24;17.00;99.90
43015;DHT22;28637;50.554;7.032;2023-10-19T10:46:32;16.90;99.90
43015;DHT22;28637;50.554;7.032;2023-10-19T10:51:33;16.80;99.90
43015;DHT22;28637;50.554;7.032;2023-10-19T10:56:40;16.70;99.90
43015;DHT22;28637;50.554;7.032;2023-10-19T11:01:41;16.50;99.90
43015;DHT22;28637;50.554;7.032;2023-10-19T11:06:49;16.50;99.90
43015;DHT22;28637;50.554;7.032;2023-10-19T11:11:50;16.50;99.90
43015;DHT22;28637;50.554;7.032;2023-10-19T11:16:53;16.50;99.90
43015;DHT22;28637;50.554;7.032;2023-10-19T11:21:54;16.50;99.90
43015;DHT22;28637;50.554;7.032;2023-10-19T11:26:55;16.50;99.90
43015;DHT22;28637;50.554;7.032;2023-10-19T11:31:59;16.60;99.90
43015;DHT22;28637;50.554;7.032;2023-10-19T11:37:00;16.60;99.90
43015;DHT22;28637;50.554;7.032;2023-10-19T11:42:03;16.60;99.90
43015;DHT22;28637;50.554;7.032;2023-10-19T11:47:05;16.60;99.90
43015;DHT22;28637;50.554;7.032;2023-10-19T11:52:06;16.60;99.90
43015;DHT22;28637;50.554;7.032;2023-10-19T11:57:07;16.40;99.90
43015;DHT22;28637;50.554;7.032;2023-10-19T12:02:08;16.30;99.90
43015;DHT22;28637;50.554;7.032;2023-10-19T12:07:10;16.30;99.90
43015;DHT22;28637;50.554;7.032;2023-10-19T12:12:10;16.20;99.90
43015;DHT22;28637;50.554;7.032;2023-10-19T12:17:11;16.30;99.90
43015;DHT22;28637;50.554;7.032;2023-10-19T12:22:12;16.30;99.90
43015;DHT22;28637;50.554;7.032;2023-10-19T12:27:13;16.30;99.90
43015;DHT22;28637;50.554;7.032;2023-10-19T12:32:14;16.40;99.90
43015;DHT22;28637;50.554;7.032;2023-10-19T12:37:15;16.30;99.90
43015;DHT22;28637;50.554;7.032;2023-10-19T12:42:18;16.30;99.90
43015;DHT22;28637;50.554;7.032;2023-10-19T12:47:19;16.30;99.90
43015;DHT22;28637;50.554;7.032;2023-10-19T12:52:22;16.30;99.90
43015;DHT22;28637;50.554;7.032;2023-10-19T12:57:23;16.30;99.90
43015;DHT22;28637;50.554;7.032;2023-10-19T13:02:24;16.30;99.90
43015;DHT22;28637;50.554;7.032;2023-10-19T13:07:25;16.30;99.90
43015;DHT22;28637;50.554;7.032;2023-10-19T13:12:26;16.40;99.90
43015;DHT22;28637;50.554;7.032;2023-10-19T13:17:27;16.40;99.90
43015;DHT22;28637;50.554;7.032;2023-10-19T13:22:27;16.40;99.90
43015;DHT22;28637;50.554;7.032;2023-10-19T13:27:28;16.50;99.90
43015;DHT22;28637;50.554;7.032;2023-10-19T13:32:32;16.50;99.90
43015;DHT22;28637;50.554;7.032;2023-10-19T13:37:33;16.50;99.90
43015;DHT22;28637;50.554;7.032;2023-10-19T13:42:33;16.50;99.90
43015;DHT22;28637;50.554;7.032;2023-10-19T13:47:35;16.40;99.90
43015;DHT22;28637;50.554;7.032;2023-10-19T13:52:36;16.40;99.90
43015;DHT22;28637;50.554;7.032;2023-10-19T13:57:36;16.40;99.90
43015;DHT22;28637;50.554;7.032;2023-10-19T14:02:38;16.50;99.90
43015;DHT22;28637;50.554;7.032;2023-10-19T14:07:39;16.50;99.90
43015;DHT22;28637;50.554;7.032;2023-10-19T14:12:40;16.50;99.90
43015;DHT22;28637;50.554;7.032;2023-10-19T14:17:46;16.60;99.90
43015;DHT22;28637;50.554;7.032;2023-10-19T14:22:49;16.70;99.90
43015;DHT22;28637;50.554;7.032;2023-10-19T14:27:51;17.00;99.90
43015;DHT22;28637;50.554;7.032;2023-10-19T14:32:53;18.10;99.90
43015;DHT22;28637;50.554;7.032;2023-10-19T14:37:55;20.20;99.90
43015;DHT22;28637;50.554;7.032;2023-10-19T14:42:57;20.40;99.90
43015;DHT22;28637;50.554;7.032;2023-10-19T14:47:58;20.10;99.90
43015;DHT22;28637;50.554;7.032;2023-10-19T14:52:59;19.30;99.90
43015;DHT22;28637;50.554;7.032;2023-10-19T14:58:00;18.80;99.90
43015;DHT22;28637;50.554;7.032;2023-10-19T15:03:02;18.60;99.90
43015;DHT22;28637;50.554;7.032;2023-10-19T15:08:07;18.50;99.90
43015;DHT22;28637;50.554;7.032;2023-10-19T15:13:09;20.00;99.90
43015;DHT22;28637;50.554;7.032;2023-10-19T15:18:10;20.30;99.90
43015;DHT22;28637;50.554;7.032;2023-10-19T15:23:11;20.10;99.90
43015;DHT22;28637;50.554;7.032;2023-10-19T15:28:11;20.50;99.90
43015;DHT22;28637;50.554;7.032;2023-10-19T15:33:12;21.40;99.90
43015;DHT22;28637;50.554;7.032;2023-10-19T15:38:15;20.90;99.90
43015;DHT22;28637;50.554;7.032;2023-10-19T15:43:15;22.40;99.90
43015;DHT22;28637;50.554;7.032;2023-10-19T15:48:16;24.40;99.90
43015;DHT22;28637;50.554;7.032;2023-10-19T15:53:17;23.80;99.90
43015;DHT22;28637;50.554;7.032;2023-10-19T15:58:18;21.80;99.90
43015;DHT22;28637;50.554;7.032;2023-10-19T16:03:21;20.10;99.90
43015;DHT22;28637;50.554;7.032;2023-10-19T16:08:22;19.00;99.90
43015;DHT22;28637;50.554;7.032;2023-10-19T16:13:23;18.30;99.90
43015;DHT22;28637;50.554;7.032;2023-10-19T16:18:24;17.90;99.90
43015;DHT22;28637;50.554;7.032;2023-10-19T16:23:27;17.50;99.90
43015;DHT22;28637;50.554;7.032;2023-10-19T16:28:28;17.20;99.90
43015;DHT22;28637;50.554;7.032;2023-10-19T16:33:29;17.10;99.90
43015;DHT22;28637;50.554;7.032;2023-10-19T16:38:29;16.70;99.90
43015;DHT22;28637;50.554;7.032;2023-10-19T16:43:30;16.40;99.90
43015;DHT22;28637;50.554;7.032;2023-10-19T16:48:31;16.10;99.90
43015;DHT22;28637;50.554;7.032;2023-10-19T16:53:32;15.80;99.90
43015;DHT22;28637;50.554;7.032;2023-10-19T16:58:33;15.70;99.90
43015;DHT22;28637;50.554;7.032;2023-10-19T17:03:34;15.60;99.90
43015;DHT22;28637;50.554;7.032;2023-10-19T17:08:36;15.50;99.90
43015;DHT22;28637;50.554;7.032;2023-10-19T17:13:36;15.40;99.90
43015;DHT22;28637;50.554;7.032;2023-10-19T17:18:37;15.30;99.90
43015;DHT22;28637;50.554;7.032;2023-10-19T17:23:38;15.20;99.90
43015;DHT22;28637;50.554;7.032;2023-10-19T17:28:40;15.10;99.90
43015;DHT22;28637;50.554;7.032;2023-10-19T17:33:41;15.10;99.90
43015;DHT22;28637;50.554;7.032;2023-10-19T17:38:42;15.00;99.90
43015;DHT22;28637;50.554;7.032;2023-10-19T17:43:42;14.90;99.90
43015;DHT22;28637;50.554;7.032;2023-10-19T17:48:45;14.80;99.90
43015;DHT22;28637;50.554;7.032;2023-10-19T17:53:45;14.80;99.90
43015;DHT22;28637;50.554;7.032;2023-10-19T17:58:47;14.80;99.90
43015;DHT22;28637;50.554;7.032;2023-10-19T18:03:50;14.80;99.90
43015;DHT22;28637;50.554;7.032;2023-10-19T18:08:51;14.80;99.90
43015;DHT22;28637;50.554;7.032;2023-10-19T18:13:52;14.70;99.90
43015;DHT22;28637;50.554;7.032;2023-10-19T18:18:52;14.70;99.90
43015;DHT22;28637;50.554;7.032;2023-10-19T18:23:53;14.70;99.90
43015;DHT22;28637;50.554;7.032;2023-10-19T18:28:54;14.70;99.90
43015;DHT22;28637;50.554;7.032;2023-10-19T18:33:54;14.70;99.90
43015;DHT22;28637;50.554;7.032;2023-10-19T18:38:56;14.60;99.90
43015;DHT22;28637;50.554;7.032;2023-10-19T18:43:57;14.60;99.90
43015;DHT22;28637;50.554;7.032;2023-10-19T18:48:59;14.60;99.90
43015;DHT22;28637;50.554;7.032;2023-10-19T18:54:00;14.50;99.90
43015;DHT22;28637;50.554;7.032;2023-10-19T18:59:04;14.50;99.90
43015;DHT22;28637;50.554;7.032;2023-10-19T19:04:05;14.50;99.90
43015;DHT22;28637;50.554;7.032;2023-10-19T19:09:07;14.50;99.90
43015;DHT22;28637;50.554;7.032;2023-10-19T19:14:12;14.60;99.90
43015;DHT22;28637;50.554;7.032;2023-10-19T19:19:13;14.70;99.90
43015;DHT22;28637;50.554;7.032;2023-10-19T19:24:13;14.70;99.90
43015;DHT22;28637;50.554;7.032;2023-10-19T19:29:14;14.70;99.90
43015;DHT22;28637;50.554;7.032;2023-10-19T19:34:18;14.70;99.90
43015;DHT22;28637;50.554;7.032;2023-10-19T19:39:19;14.60;99.90
43015;DHT22;28637;50.554;7.032;2023-10-19T19:44:20;14.60;99.90
43015;DHT22;28637;50.554;7.032;2023-10-19T19:49:21;14.70;99.90
43015;DHT22;28637;50.554;7.032;2023-10-19T19:54:23;14.70;99.90
43015;DHT22;28637;50.554;7.032;2023-10-19T19:59:24;14.70;99.90
43015;DHT22;28637;50.554;7.032;2023-10-19T20:04:25;14.80;99.90
43015;DHT22;28637;50.554;7.032;2023-10-19T20:09:26;14.80;99.90
43015;DHT22;28637;50.554;7.032;2023-10-19T20:14:27;14.80;99.90
43015;DHT22;28637;50.554;7.032;2023-10-19T20:19:28;14.80;99.90
43015;DHT22;28637;50.554;7.032;2023-10-19T20:24:28;14.70;99.90
43015;DHT22;28637;50.554;7.032;2023-10-19T20:29:29;14.70;99.90
43015;DHT22;28637;50.554;7.032;2023-10-19T20:34:30;14.70;99.90
43015;DHT22;28637;50.554;7.032;2023-10-19T20:39:32;14.70;99.90
43015;DHT22;28637;50.554;7.032;2023-10-19T20:44:36;14.70;99.90
43015;DHT22;28637;50.554;7.032;2023-10-19T20:49:41;14.70;99.90
43015;DHT22;28637;50.554;7.032;2023-10-19T20:54:41;14.70;99.90
43015;DHT22;28637;50.554;7.032;2023-10-19T20:59:42;14.70;99.90
43015;DHT22;28637;50.554;7.032;2023-10-19T21:04:44;14.70;99.90
43015;DHT22;28637;50.554;7.032;2023-10-19T21:09:45;14.70;99.90
43015;DHT22;28637;50.554;7.032;2023-10-19T21:14:48;14.70;99.90
43015;DHT22;28637;50.554;7.032;2023-10-19T21:19:51;14.70;99.90
43015;DHT22;28637;50.554;7.032;2023-10-19T21:24:53;14.70;99.90
43015;DHT22;28637;50.554;7.032;2023-10-19T21:29:54;14.70;99.90
43015;DHT22;28637;50.554;7.032;2023-10-19T21:34:55;14.60;99.90
43015;DHT22;28637;50.554;7.032;2023-10-19T21:39:55;14.60;99.90
43015;DHT22;28637;50.554;7.032;2023-10-19T21:44:56;14.70;99.90
43015;DHT22;28637;50.554;7.032;2023-10-19T21:49:57;14.80;99.90
43015;DHT22;28637;50.554;7.032;2023-10-19T21:54:58;14.80;99.90
43015;DHT22;28637;50.554;7.032;2023-10-19T22:00:00;14.80;99.90
43015;DHT22;28637;50.554;7.032;2023-10-19T22:05:01;14.90;99.90
43015;DHT22;28637;50.554;7.032;2023-10-19T22:10:01;14.90;99.90
43015;DHT22;28637;50.554;7.032;2023-10-19T22:15:04;14.90;99.90
43015;DHT22;28637;50.554;7.032;2023-10-19T22:20:06;15.00;99.90
43015;DHT22;28637;50.554;7.032;2023-10-19T22:25:08;15.00;99.90
43015;DHT22;28637;50.554;7.032;2023-10-19T22:30:09;15.10;99.90
43015;DHT22;28637;50.554;7.032;2023-10-19T22:35:12;15.20;99.90
43015;DHT22;28637;50.554;7.032;2023-10-19T22:40:13;15.20;99.90
43015;DHT22;28637;50.554;7.032;2023-10-19T22:45:14;15.20;99.90
43015;DHT22;28637;50.554;7.032;2023-10-19T22:50:16;15.30;99.90
43015;DHT22;28637;50.554;7.032;2023-10-19T22:55:19;15.30;99.90
43015;DHT22;28637;50.554;7.032;2023-10-19T23:00:21;15.40;99.90
43015;DHT22;28637;50.554;7.032;2023-10-19T23:05:22;15.40;99.90
43015;DHT22;28637;50.554;7.032;2023-10-19T23:10:23;15.50;99.90
43015;DHT22;28637;50.554;7.032;2023-10-19T23:15:29;15.50;99.90
43015;DHT22;28637;50.554;7.032;2023-10-19T23:20:40;15.50;99.90
43015;DHT22;28637;50.554;7.032;2023-10-19T23:25:40;15.40;99.90
43015;DHT22;28637;50.554;7.032;2023-10-19T23:30:50;15.40;99.90
43015;DHT22;28637;50.554;7.032;2023-10-19T23:35:51;15.40;99.90
43015;DHT22;28637;50.554;7.032;2023-10-19T23:40:51;15.40;99.90
43015;DHT22;28637;50.554;7.032;2023-10-19T23:45:53;15.40;99.90
43015;DHT22;28637;50.554;7.032;2023-10-19T23:50:55;15.40;99.90
43015;DHT22;28637;50.554;7.032;2023-10-19T23:55:56;15.40;99.90
